Time;durP1;ratioP1;P1;durP2;ratioP2;P2;SDS_P1;SDS_P2;PMS_P1;PMS_P2;Temp;Humidity;BMP_temperature;BMP_pressure;BME280_temperature;BME280_humidity;BME280_pressure;Samples;Min_cycle;Max_cycle;Signal;HPM_P1;HPM_P2
2022/04/02 00:02:09;;;;;;;11.40;2.60;;;;;;;2.92;67.10;101649.81;4967635;28;20091;-34
2022/04/02 00:04:34;;;;;;;12.98;2.88;;;;;;;2.93;66.66;101646.22;4968367;28;20022;-32
2022/04/02 00:06:59;;;;;;;5.75;2.20;;;;;;;2.90;66.80;101649.06;4967525;28;20123;-32
2022/04/02 00:09:25;;;;;;;6.38;2.38;;;;;;;2.89;66.26;101655.38;4968241;28;20064;-32
2022/04/02 00:11:50;;;;;;;8.77;2.33;;;;;;;2.90;66.79;101641.97;4967989;28;20058;-32
2022/04/02 00:14:16;;;;;;;13.10;2.40;;;;;;;2.89;66.38;101644.72;4967548;28;20155;-35
2022/04/02 00:16:42;;;;;;;9.98;2.15;;;;;;;2.90;65.52;101638.44;4949361;28;20085;-34
2022/04/02 00:19:07;;;;;;;10.23;2.47;;;;;;;2.92;66.19;101642.69;4967543;28;20058;-30
2022/04/02 00:21:33;;;;;;;10.70;2.47;;;;;;;2.90;66.29;101646.41;4966587;28;20031;-33
2022/04/02 00:23:58;;;;;;;8.02;2.40;;;;;;;2.93;66.28;101643.56;4950897;28;20035;-32
2022/04/02 00:26:24;;;;;;;11.23;2.10;;;;;;;2.99;66.12;101641.28;4966185;28;20034;-33
2022/04/02 00:28:50;;;;;;;9.55;2.10;;;;;;;2.98;65.59;101644.06;4966195;28;20112;-30
2022/04/02 00:31:16;;;;;;;11.80;2.50;;;;;;;3.01;66.01;101635.84;4967787;28;20493;-32
2022/04/02 00:33:44;;;;;;;6.95;2.00;;;;;;;3.05;65.72;101638.19;4966477;28;20362;-32
2022/04/02 00:36:10;;;;;;;5.97;1.95;;;;;;;2.99;65.38;101640.44;4967820;28;20023;-32
2022/04/02 00:38:36;;;;;;;9.23;2.22;;;;;;;2.94;65.88;101638.09;4966339;28;20114;-32
2022/04/02 00:41:02;;;;;;;10.32;2.50;;;;;;;3.00;65.41;101642.13;4949963;28;20201;-31
2022/04/02 00:43:35;;;;;;;10.15;2.15;;;;;;;2.97;66.04;101637.03;4967383;28;20212;-30
2022/04/02 00:46:05;;;;;;;7.78;2.13;;;;;;;3.00;65.63;101635.00;4966862;28;20136;-33
2022/04/02 00:48:30;;;;;;;13.20;1.83;;;;;;;3.06;66.28;101631.06;4967212;28;20031;-32
2022/04/02 00:50:57;;;;;;;10.15;2.25;;;;;;;3.06;65.69;101631.06;4969577;28;20156;-31
2022/04/02 00:53:24;;;;;;;6.15;1.70;;;;;;;3.09;66.44;101636.13;4970433;28;20027;-34
2022/04/02 00:55:50;;;;;;;8.80;1.88;;;;;;;3.05;66.17;101640.84;4969286;28;20023;-32
2022/04/02 00:58:16;;;;;;;11.05;2.72;;;;;;;3.07;66.35;101640.72;4969043;28;20046;-31
2022/04/02 01:00:42;;;;;;;14.35;2.10;;;;;;;3.02;66.11;101640.22;4970576;28;20023;-33
2022/04/02 01:03:09;;;;;;;9.00;2.50;;;;;;;3.03;66.96;101641.91;4969886;28;20066;-32
2022/04/02 01:05:35;;;;;;;7.68;2.95;;;;;;;3.03;67.27;101633.94;4970209;28;20122;-32
2022/04/02 01:08:05;;;;;;;8.32;1.90;;;;;;;3.06;66.92;101647.84;4969032;28;20433;-31
2022/04/02 01:10:33;;;;;;;7.88;2.33;;;;;;;3.11;66.69;101639.53;4970266;28;20118;-31
2022/04/02 01:12:59;;;;;;;18.08;2.83;;;;;;;3.03;67.42;101641.91;4958602;28;20033;-32
2022/04/02 01:15:25;;;;;;;5.93;2.40;;;;;;;3.07;67.59;101649.53;4968719;28;20497;-31
2022/04/02 01:17:52;;;;;;;5.82;1.75;;;;;;;3.04;67.85;101640.94;4970200;28;20031;-31
2022/04/02 01:20:17;;;;;;;5.22;2.30;;;;;;;3.00;67.90;101639.47;4970544;28;20026;-32
2022/04/02 01:22:43;;;;;;;10.32;1.90;;;;;;;3.03;67.75;101647.25;4969542;28;20474;-32
2022/04/02 01:25:08;;;;;;;13.60;3.30;;;;;;;3.08;67.03;101650.38;4970073;28;20453;-33
2022/04/02 01:27:34;;;;;;;9.50;2.55;;;;;;;3.05;67.74;101642.63;4968801;28;20041;-32
2022/04/02 01:29:59;;;;;;;10.60;2.10;;;;;;;3.05;67.62;101640.84;4968838;28;20037;-34
2022/04/02 01:32:25;;;;;;;5.72;2.13;;;;;;;3.03;67.72;101647.25;4969933;28;20037;-32
2022/04/02 01:34:50;;;;;;;8.20;2.13;;;;;;;3.03;67.94;101641.91;4969578;28;20053;-34
2022/04/02 01:37:16;;;;;;;4.13;1.92;;;;;;;3.04;67.93;101648.94;4968872;28;20110;-35
2022/04/02 01:39:42;;;;;;;5.60;2.28;;;;;;;3.05;66.96;101648.81;4970079;28;20039;-34
2022/04/02 01:42:09;;;;;;;7.07;2.20;;;;;;;3.01;67.49;101651.81;4969856;28;20065;-32
2022/04/02 01:44:35;;;;;;;12.10;2.15;;;;;;;3.01;65.84;101651.81;4969973;28;20100;-35
2022/04/02 01:47:00;;;;;;;6.47;2.05;;;;;;;2.96;66.03;101653.97;4968808;28;20469;-36
2022/04/02 01:49:26;;;;;;;9.63;2.42;;;;;;;2.96;65.52;101657.47;4968737;28;20061;-32
2022/04/02 01:51:52;;;;;;;9.43;1.88;;;;;;;2.88;65.17;101654.53;4969877;28;20031;-36
2022/04/02 01:54:20;;;;;;;5.70;1.85;;;;;;;2.84;64.82;101648.59;4969750;28;20056;-33
2022/04/02 01:56:47;;;;;;;3.75;1.75;;;;;;;2.77;65.20;101655.31;4968377;28;20041;-33
2022/04/02 01:59:12;;;;;;;3.33;1.67;;;;;;;2.79;65.59;101661.38;4969769;28;20038;-33
2022/04/02 02:01:38;;;;;;;4.85;1.83;;;;;;;2.76;65.54;101658.91;4969099;28;20389;-33
2022/04/02 02:04:03;;;;;;;5.18;2.13;;;;;;;2.71;66.05;101661.03;4968503;28;20031;-34
2022/04/02 02:06:29;;;;;;;6.57;2.00;;;;;;;2.70;65.68;101656.69;4969144;28;20034;-35
2022/04/02 02:08:54;;;;;;;3.47;2.00;;;;;;;2.70;66.04;101662.00;4969245;28;20446;-33
2022/04/02 02:11:21;;;;;;;5.78;2.65;;;;;;;2.70;66.01;101661.19;4969608;28;20434;-32
2022/04/02 02:13:46;;;;;;;3.13;2.00;;;;;;;2.71;66.77;101662.84;4967483;28;20031;-33
2022/04/02 02:16:12;;;;;;;8.27;2.45;;;;;;;2.64;66.73;101657.16;4968026;28;20389;-33
2022/04/02 02:18:37;;;;;;;10.02;2.10;;;;;;;2.66;67.45;101657.03;4969110;28;20042;-32
2022/04/02 02:21:02;;;;;;;7.05;2.25;;;;;;;2.66;67.01;101657.03;4969078;28;20054;-32
2022/04/02 02:23:28;;;;;;;4.63;2.17;;;;;;;2.68;66.70;101657.78;4969373;28;20035;-31
2022/04/02 02:25:53;;;;;;;5.57;2.05;;;;;;;2.64;66.38;101663.31;4969008;28;20030;-33
2022/04/02 02:28:18;;;;;;;5.18;1.92;;;;;;;2.62;66.47;101665.22;4969188;28;20122;-32
2022/04/02 02:30:44;;;;;;;5.68;1.75;;;;;;;2.62;66.26;101665.22;4967575;28;20027;-33
2022/04/02 02:35:54;;;;;;;4.68;2.30;;;;;;;2.52;66.98;101669.50;4968990;28;20516;-33
2022/04/02 02:38:20;;;;;;;5.38;2.15;;;;;;;2.54;67.67;101661.44;4968752;28;20030;-36
2022/04/02 02:40:46;;;;;;;12.55;2.30;;;;;;;2.55;67.00;101665.78;4968961;28;20335;-31
2022/04/02 02:43:12;;;;;;;5.75;2.28;;;;;;;2.58;67.31;101673.53;4967424;28;20485;-32
2022/04/02 02:45:37;;;;;;;5.65;2.42;;;;;;;2.60;67.55;101668.94;4968740;28;20065;-31
2022/04/02 02:48:04;;;;;;;3.05;2.28;;;;;;;2.55;68.27;101668.44;4968517;28;20034;-35
2022/04/02 02:50:29;;;;;;;7.00;3.17;;;;;;;2.58;68.04;101669.06;4968709;28;20054;-30
2022/04/02 02:52:55;;;;;;;7.90;2.70;;;;;;;2.58;68.80;101662.88;4968836;28;20085;-31
2022/04/02 02:55:20;;;;;;;6.97;2.80;;;;;;;2.56;69.04;101670.16;4967192;28;20114;-31
2022/04/02 02:57:47;;;;;;;3.95;2.40;;;;;;;2.61;69.15;101666.19;4967395;28;20482;-31
2022/04/02 03:00:14;;;;;;;6.10;2.28;;;;;;;2.63;69.87;101668.72;4968316;28;20113;-31
2022/04/02 03:02:40;;;;;;;10.33;2.97;;;;;;;2.61;69.90;101671.50;4966949;28;20495;-32
2022/04/02 03:05:09;;;;;;;9.93;2.75;;;;;;;2.62;70.03;101672.34;4968101;28;20035;-32
2022/04/02 03:07:36;;;;;;;5.03;2.65;;;;;;;2.66;70.11;101670.31;4967893;28;20055;-32
2022/04/02 03:10:02;;;;;;;6.28;2.33;;;;;;;2.64;70.41;101667.78;4967680;28;20377;-31
2022/04/02 03:12:28;;;;;;;4.63;2.70;;;;;;;2.69;70.90;101667.47;4968203;28;20117;-34
2022/04/02 03:14:53;;;;;;;12.73;2.80;;;;;;;2.71;70.77;101670.84;4966719;28;20473;-31
2022/04/02 03:17:19;;;;;;;6.82;2.75;;;;;;;2.70;70.37;101662.00;4968184;28;20064;-31
2022/04/02 03:19:46;;;;;;;5.15;2.50;;;;;;;2.68;70.53;101660.44;4968669;28;20413;-31
2022/04/02 03:22:12;;;;;;;5.13;2.50;;;;;;;2.64;70.94;101670.44;4968160;28;20038;-32
2022/04/02 03:24:37;;;;;;;13.20;2.80;;;;;;;2.66;71.28;101667.66;4966744;28;20063;-31
2022/04/02 03:27:04;;;;;;;6.65;3.10;;;;;;;2.66;70.96;101671.19;4968131;28;20116;-32
2022/04/02 03:29:30;;;;;;;5.55;2.47;;;;;;;2.57;71.16;101667.38;4968168;28;20026;-33
2022/04/02 03:31:55;;;;;;;5.63;2.60;;;;;;;2.61;71.48;101678.63;4966098;28;20118;-31
2022/04/02 03:34:21;;;;;;;7.75;2.30;;;;;;;2.64;71.13;101667.78;4968179;28;20509;-32
2022/04/02 03:36:46;;;;;;;10.38;2.70;;;;;;;2.62;71.48;101669.69;4968112;28;20042;-32
2022/04/02 03:39:12;;;;;;;6.65;2.50;;;;;;;2.62;71.32;101670.53;4967943;28;20098;-32
2022/04/02 03:41:37;;;;;;;5.68;2.60;;;;;;;2.57;71.29;101667.38;4968192;28;20034;-34
2022/04/02 03:44:02;;;;;;;6.55;2.28;;;;;;;2.57;71.07;101666.53;4966402;28;20090;-32
2022/04/02 03:49:13;;;;;;;5.75;2.10;;;;;;;2.62;70.85;101669.69;4968133;28;20064;-32
2022/04/02 03:51:39;;;;;;;4.18;1.98;;;;;;;2.64;70.48;101673.94;4967841;28;20027;-33
2022/04/02 03:54:04;;;;;;;10.35;2.88;;;;;;;2.62;70.52;101670.53;4966561;28;20045;-35
2022/04/02 03:56:30;;;;;;;7.47;2.40;;;;;;;2.67;69.59;101678.19;4967936;28;20034;-33
2022/04/02 03:58:55;;;;;;;6.13;2.40;;;;;;;2.70;69.76;101677.97;4968197;28;20397;-32
2022/04/02 04:01:21;;;;;;;7.38;2.28;;;;;;;2.65;70.39;101669.47;4967441;28;20066;-31
2022/04/02 04:03:46;;;;;;;10.93;2.45;;;;;;;2.65;69.99;101674.78;4966505;28;20382;-32
2022/04/02 04:06:11;;;;;;;7.63;2.20;;;;;;;2.59;69.86;101670.75;4967896;28;20484;-33
2022/04/02 04:08:37;;;;;;;6.10;2.47;;;;;;;2.59;70.06;101681.41;4967580;28;20051;-32
2022/04/02 04:11:02;;;;;;;4.25;2.22;;;;;;;2.63;69.71;101682.88;4966047;28;20130;-33
2022/04/02 04:13:28;;;;;;;9.80;2.50;;;;;;;2.60;70.25;101687.56;4966567;28;20030;-33
2022/04/02 04:15:53;;;;;;;4.97;2.17;;;;;;;2.61;69.58;101684.78;4967264;28;20038;-33
2022/04/02 04:18:18;;;;;;;11.15;2.60;;;;;;;2.56;70.30;101696.72;4967464;28;20058;-32
2022/04/02 04:20:44;;;;;;;13.32;2.70;;;;;;;2.53;70.10;101692.47;4967247;28;20437;-35
2022/04/02 04:23:09;;;;;;;7.55;2.17;;;;;;;2.49;70.20;101701.59;4967559;28;20061;-31
2022/04/02 04:25:34;;;;;;;4.95;2.40;;;;;;;2.46;70.45;101701.81;4968710;28;20185;-34
2022/04/02 04:28:01;;;;;;;5.72;2.17;;;;;;;2.41;71.10;101699.47;4970061;28;20030;-32
2022/04/02 04:30:27;;;;;;;7.95;2.60;;;;;;;2.37;70.94;101699.81;4971091;28;20035;-32
2022/04/02 04:32:52;;;;;;;5.47;2.78;;;;;;;2.37;71.06;101703.34;4969975;28;20027;-32
2022/04/02 04:35:18;;;;;;;8.18;2.28;;;;;;;2.32;71.44;101701.97;4968374;28;20023;-33
2022/04/02 04:37:43;;;;;;;7.28;2.40;;;;;;;2.30;71.73;101704.72;4968285;28;20035;-34
2022/04/02 04:40:09;;;;;;;8.35;2.72;;;;;;;2.25;71.56;101693.56;4968229;28;20422;-31
2022/04/02 04:42:34;;;;;;;10.15;2.78;;;;;;;2.26;71.31;101705.03;4968520;28;20027;-32
2022/04/02 04:44:59;;;;;;;7.07;2.70;;;;;;;2.26;71.23;101716.50;4950462;28;20043;-32
2022/04/02 04:47:25;;;;;;;9.02;2.42;;;;;;;2.24;71.68;101717.56;4968332;28;20043;-31
2022/04/02 04:49:50;;;;;;;11.75;2.97;;;;;;;2.19;71.58;101717.91;4968432;28;20284;-32
2022/04/02 04:52:15;;;;;;;3.70;2.40;;;;;;;2.06;71.54;101717.88;4968015;28;20088;-34
2022/04/02 04:54:41;;;;;;;8.63;2.85;;;;;;;2.06;71.66;101725.00;4966606;28;20105;-32
2022/04/02 04:57:06;;;;;;;16.95;3.20;;;;;;;2.06;71.81;101730.31;4966415;28;20482;-34
2022/04/02 04:59:31;;;;;;;8.70;2.60;;;;;;;2.00;72.14;101728.91;4968113;28;20048;-31
2022/04/02 05:01:56;;;;;;;11.88;3.17;;;;;;;1.96;71.80;101736.25;4967687;28;20035;-32
2022/04/02 05:04:22;;;;;;;5.03;2.80;;;;;;;2.01;72.57;101732.44;4966528;28;20037;-31
2022/04/02 05:06:49;;;;;;;6.22;3.50;;;;;;;2.03;72.45;101736.69;4967221;28;20061;-34
2022/04/02 05:09:14;;;;;;;7.45;2.53;;;;;;;2.02;72.36;101734.13;4967691;28;20050;-32
2022/04/02 05:11:40;;;;;;;4.72;2.60;;;;;;;2.04;72.61;101734.88;4965945;28;20084;-33
2022/04/02 05:14:05;;;;;;;3.83;2.40;;;;;;;2.02;72.08;101736.78;4967954;28;20035;-31
2022/04/02 05:16:31;;;;;;;8.90;2.70;;;;;;;1.97;72.42;101732.66;4967842;28;20031;-34
2022/04/02 05:18:56;;;;;;;11.68;2.85;;;;;;;1.96;72.01;101736.25;4967958;28;20035;-33
2022/04/02 05:21:21;;;;;;;6.60;2.80;;;;;;;1.98;71.43;101742.31;4966376;28;20653;-31
2022/04/02 05:23:47;;;;;;;5.47;2.75;;;;;;;1.92;72.00;101740.06;4967882;28;20045;-35
2022/04/02 05:26:12;;;;;;;3.83;2.50;;;;;;;1.93;71.95;101746.22;4950123;28;20314;-33
2022/04/02 05:28:37;;;;;;;6.60;2.80;;;;;;;1.86;71.80;101744.94;4967243;28;20038;-34
2022/04/02 05:31:03;;;;;;;6.72;2.60;;;;;;;1.85;71.76;101749.41;4967612;28;20070;-35
2022/04/02 05:33:30;;;;;;;7.78;2.67;;;;;;;1.85;72.03;101756.50;4967252;28;20115;-33
2022/04/02 05:35:55;;;;;;;9.52;3.00;;;;;;;1.88;71.91;101754.50;4966303;28;20103;-31
2022/04/02 05:38:20;;;;;;;8.80;2.78;;;;;;;1.89;71.68;101756.19;4966776;28;20584;-32
2022/04/02 05:40:46;;;;;;;5.20;2.80;;;;;;;1.90;71.43;101765.88;4967449;28;20042;-32
2022/04/02 05:43:11;;;;;;;12.70;2.40;;;;;;;1.91;70.77;101758.75;4967135;28;20035;-35
2022/04/02 05:45:36;;;;;;;13.20;2.88;;;;;;;1.92;70.76;101766.63;4967269;28;20109;-32
2022/04/02 05:48:02;;;;;;;6.15;2.60;;;;;;;2.02;70.45;101777.44;4967068;28;20042;-35
2022/04/02 05:50:27;;;;;;;5.85;2.70;;;;;;;2.03;69.95;101772.97;4967223;28;20031;-34
2022/04/02 05:52:53;;;;;;;5.07;2.58;;;;;;;2.07;70.20;101782.47;4965569;28;20080;-34
2022/04/02 05:55:19;;;;;;;6.18;2.72;;;;;;;2.07;69.76;101779.81;4967123;28;20023;-35
2022/04/02 05:57:44;;;;;;;8.18;2.15;;;;;;;2.18;69.24;101783.41;4957453;28;20027;-32
2022/04/02 06:00:12;;;;;;;4.00;2.53;;;;;;;2.18;69.90;101787.88;4964137;28;20487;-34
2022/04/02 06:02:39;;;;;;;9.75;2.20;;;;;;;2.27;69.10;101789.94;4966800;28;20116;-33
2022/04/02 06:05:07;;;;;;;12.68;2.80;;;;;;;2.35;68.08;101790.25;4967112;28;20269;-31
2022/04/02 06:07:32;;;;;;;16.23;2.67;;;;;;;2.41;67.83;101794.28;4966893;28;20394;-31
2022/04/02 06:09:58;;;;;;;11.40;2.67;;;;;;;2.41;67.93;101796.94;4964340;28;20031;-33
2022/04/02 06:12:23;;;;;;;7.78;2.75;;;;;;;2.43;68.29;101797.69;4964866;28;20042;-33
2022/04/02 06:14:49;;;;;;;13.50;2.65;;;;;;;2.44;68.38;101803.84;4966725;28;20571;-32
2022/04/02 06:17:14;;;;;;;11.10;3.03;;;;;;;2.46;67.50;101807.25;4964959;28;20154;-37
2022/04/02 06:19:39;;;;;;;5.47;2.28;;;;;;;2.48;67.66;101802.69;4966245;28;20096;-32
2022/04/02 06:22:08;;;;;;;7.90;2.30;;;;;;;2.59;67.42;101814.28;4966899;28;20022;-32
2022/04/02 06:24:36;;;;;;;8.80;2.60;;;;;;;2.75;67.29;101816.72;4965381;28;20049;-35
2022/04/02 06:27:02;;;;;;;8.15;2.53;;;;;;;3.02;66.62;101815.72;4966916;28;20030;-34
2022/04/02 06:29:27;;;;;;;4.97;2.40;;;;;;;3.37;64.57;101825.63;4965143;28;20050;-34
2022/04/02 06:31:53;;;;;;;3.50;2.22;;;;;;;3.59;63.63;101823.13;4966331;28;20038;-32
2022/04/02 06:34:18;;;;;;;7.38;2.78;;;;;;;3.76;62.51;101821.03;4964934;28;20041;-36
2022/04/02 06:36:44;;;;;;;4.43;2.10;;;;;;;3.83;62.03;101822.28;4966180;28;20038;-34
2022/04/02 06:39:12;;;;;;;7.53;2.25;;;;;;;3.90;62.27;101824.38;4965070;28;20046;-34
2022/04/02 06:41:37;;;;;;;5.07;2.63;;;;;;;4.02;61.47;101827.91;4962004;28;20041;-36
2022/04/02 06:44:02;;;;;;;9.60;3.20;;;;;;;4.22;60.33;101831.75;4966742;28;20031;-33
2022/04/02 06:46:28;;;;;;;6.95;3.03;;;;;;;4.29;60.60;101824.13;4966465;28;20322;-33
2022/04/02 06:48:53;;;;;;;13.35;3.25;;;;;;;4.73;59.15;101830.53;4966168;28;20080;-33
2022/04/02 06:51:18;;;;;;;9.23;2.28;;;;;;;5.39;58.09;101831.47;4966582;28;20038;-33
2022/04/02 06:53:44;;;;;;;7.88;2.40;;;;;;;6.71;53.99;101841.88;4961281;28;20027;-37
2022/04/02 06:56:09;;;;;;;4.97;2.30;;;;;;;8.00;50.42;101849.16;4957193;28;20030;-34
2022/04/02 06:58:36;;;;;;;5.38;1.80;;;;;;;8.90;46.80;101850.66;4961352;28;20062;-33
2022/04/02 07:01:02;;;;;;;4.35;1.92;;;;;;;9.53;45.89;101852.66;4964845;28;20066;-32
2022/04/02 07:03:27;;;;;;;4.40;2.28;;;;;;;10.18;43.73;101862.38;4965029;28;20046;-35
2022/04/02 07:05:52;;;;;;;7.03;1.90;;;;;;;10.55;42.24;101871.09;4965820;28;20513;-32
2022/04/02 07:08:18;;;;;;;6.32;2.20;;;;;;;10.77;41.82;101868.94;4965187;28;20565;-33
2022/04/02 07:10:43;;;;;;;3.00;1.70;;;;;;;11.08;41.05;101877.34;4949962;28;20055;-31
2022/04/02 07:13:09;;;;;;;1.92;1.70;;;;;;;10.88;40.91;101874.06;4948116;29;20482;-31
2022/04/02 07:15:34;;;;;;;7.13;2.30;;;;;;;11.43;40.20;101876.34;4965499;28;20031;-32
2022/04/02 07:18:06;;;;;;;5.00;1.90;;;;;;;11.99;38.63;101874.00;4967770;28;20019;-32
2022/04/02 07:20:34;;;;;;;5.68;2.15;;;;;;;12.34;37.66;101874.72;4966816;28;20033;-31
2022/04/02 07:22:59;;;;;;;5.30;1.98;;;;;;;12.50;36.61;101884.69;4967510;28;20371;-32
2022/04/02 07:25:25;;;;;;;6.72;1.98;;;;;;;12.70;35.93;101885.19;4956471;28;20049;-33
2022/04/02 07:27:51;;;;;;;4.55;2.00;;;;;;;12.82;35.85;101891.94;4966102;28;20461;-32
2022/04/02 07:30:16;;;;;;;11.55;2.38;;;;;;;12.92;35.32;101906.06;4965919;28;20389;-33
2022/04/02 07:32:41;;;;;;;4.30;1.77;;;;;;;13.00;35.22;101898.97;4966752;28;20039;-31
2022/04/02 07:35:07;;;;;;;8.68;2.00;;;;;;;12.93;35.09;101902.38;4966720;28;20038;-33
2022/04/02 07:37:57;;;;;;;6.93;2.05;;;;;;;12.62;35.44;101898.69;4967024;28;20114;-34
2022/04/02 07:40:26;;;;;;;5.60;1.63;;;;;;;12.75;34.53;101899.03;4968505;28;20425;-33
2022/04/02 07:43:09;;;;;;;6.07;1.80;;;;;;;13.08;33.90;101897.09;4967170;28;20056;-31
2022/04/02 07:45:40;;;;;;;3.67;1.67;;;;;;;13.25;34.03;101903.31;4968173;28;20049;-31
2022/04/02 07:48:08;;;;;;;3.72;1.83;;;;;;;13.43;33.03;101902.25;4968531;28;20117;-34
2022/04/02 07:50:34;;;;;;;3.42;1.45;;;;;;;13.28;33.54;101924.63;4966895;28;20076;-32
2022/04/02 07:53:00;;;;;;;4.70;1.70;;;;;;;13.25;32.72;101914.13;4967036;28;20038;-32
2022/04/02 07:55:29;;;;;;;5.60;1.80;;;;;;;13.09;31.94;101916.88;4968159;28;20092;-34
2022/04/02 07:57:57;;;;;;;2.95;1.60;;;;;;;12.95;31.85;101921.09;4968457;28;20027;-35
2022/04/02 08:00:26;;;;;;;7.47;1.77;;;;;;;12.85;32.92;101912.31;4968456;28;20389;-31
2022/04/02 08:02:51;;;;;;;5.18;1.73;;;;;;;13.44;31.56;101920.19;4971403;28;20072;-31
2022/04/02 08:05:18;;;;;;;5.93;2.22;;;;;;;13.84;31.47;101917.28;4971128;28;20053;-32
2022/04/02 08:07:49;;;;;;;5.10;1.60;;;;;;;13.96;30.07;101919.63;4970324;28;20050;-32
2022/04/02 08:10:16;;;;;;;4.13;1.70;;;;;;;13.76;30.45;101917.31;4970992;28;20069;-32
2022/04/02 08:12:43;;;;;;;8.80;1.50;;;;;;;13.59;31.18;101921.16;4970825;28;20113;-33
2022/04/02 08:15:12;;;;;;;6.20;1.60;;;;;;;13.82;30.01;101932.88;4971180;28;20320;-33
2022/04/02 08:17:38;;;;;;;5.85;1.60;;;;;;;13.35;29.71;101928.31;4971282;28;20477;-32
2022/04/02 08:20:05;;;;;;;8.35;1.77;;;;;;;13.44;30.74;101922.88;4971210;28;20184;-33
2022/04/02 08:22:30;;;;;;;6.40;1.55;;;;;;;13.59;29.84;101924.69;4971396;28;20030;-34
2022/04/02 08:24:58;;;;;;;4.00;1.60;;;;;;;13.90;30.79;101925.72;4971281;28;20030;-33
2022/04/02 08:27:45;;;;;;;2.97;1.40;;;;;;;14.05;29.69;101929.34;4969275;28;20377;-33
2022/04/02 08:30:18;;;;;;;4.53;1.67;;;;;;;14.58;29.21;101937.66;4969916;28;20031;-32
2022/04/02 08:33:11;;;;;;;3.40;1.65;;;;;;;14.52;28.19;101933.78;4970186;28;20405;-32
2022/04/02 08:35:55;;;;;;;7.13;1.38;;;;;;;14.67;26.49;101939.28;4971095;28;20066;-34
2022/04/02 08:38:42;;;;;;;3.90;1.30;;;;;;;14.61;26.03;101937.28;4971141;28;20030;-31
2022/04/02 08:41:38;;;;;;;8.90;1.60;;;;;;;13.99;26.97;101941.75;4971040;28;20096;-34
2022/04/02 08:44:13;;;;;;;3.10;1.27;;;;;;;13.81;28.01;101939.28;4970764;28;20058;-31
2022/04/02 08:47:08;;;;;;;4.32;1.50;;;;;;;14.10;28.46;101945.91;4969951;28;20039;-35
2022/04/02 08:49:58;;;;;;;4.60;1.63;;;;;;;14.79;27.74;101950.53;4969561;28;20038;-33
2022/04/02 08:52:39;;;;;;;2.85;1.50;;;;;;;14.41;26.33;101953.16;4970523;28;20532;-34
2022/04/02 08:55:11;;;;;;;3.72;1.60;;;;;;;13.01;27.93;101952.03;4969657;28;20054;-34
2022/04/02 08:58:23;;;;;;;3.22;1.60;;;;;;;11.90;30.22;101955.94;4968527;28;20046;-32
2022/04/02 09:01:03;;;;;;;6.55;1.90;;;;;;;11.16;30.74;101963.63;4969078;28;20043;-35
2022/04/02 09:03:57;;;;;;;8.27;1.42;;;;;;;10.38;32.46;101959.97;4970416;28;20068;-34
2022/04/02 09:06:48;;;;;;;6.93;1.50;;;;;;;9.41;34.06;101967.53;4968867;28;20478;-35
2022/04/02 09:09:58;;;;;;;2.65;1.50;;;;;;;8.76;36.26;101967.38;4970356;28;20051;-32
2022/04/02 09:12:45;;;;;;;3.70;1.70;;;;;;;8.26;36.25;101980.03;4970335;28;20034;-33
2022/04/02 09:15:15;;;;;;;5.50;1.52;;;;;;;8.62;36.55;101972.34;4970808;28;20385;-35
2022/04/02 09:18:02;;;;;;;7.15;1.70;;;;;;;9.49;35.72;101974.00;4970647;28;20557;-35
2022/04/02 09:20:38;;;;;;;4.45;1.75;;;;;;;10.09;33.69;101961.81;4969336;28;20042;-32
2022/04/02 09:23:03;;;;;;;4.57;1.63;;;;;;;10.51;33.98;101976.56;4970401;28;20054;-31
2022/04/02 09:25:58;;;;;;;3.15;1.50;;;;;;;11.41;33.48;101971.88;4970573;28;20070;-32
2022/04/02 09:28:42;;;;;;;6.93;1.45;;;;;;;11.93;31.21;101966.41;4970798;28;20031;-36
2022/04/02 09:31:44;;;;;;;5.45;1.92;;;;;;;11.29;32.29;101976.66;4970168;28;20110;-32
2022/04/02 09:34:34;;;;;;;3.65;1.50;;;;;;;11.90;31.38;101971.28;4969990;28;20349;-33
2022/04/02 09:37:09;;;;;;;4.95;2.05;;;;;;;13.01;30.33;101968.25;4969984;28;20038;-33
2022/04/02 09:39:54;;;;;;;5.78;1.63;;;;;;;14.43;27.75;101972.78;4952727;28;20023;-32
2022/04/02 09:42:27;;;;;;;6.97;1.45;;;;;;;14.61;25.70;101973.38;4968735;28;20030;-32
2022/04/02 09:45:03;;;;;;;2.30;1.40;;;;;;;14.68;25.80;101974.31;4968763;28;20073;-35
2022/04/02 09:47:46;;;;;;;3.72;1.40;;;;;;;14.57;24.83;101977.44;4969926;28;20054;-36
2022/04/02 09:50:14;;;;;;;4.03;1.50;;;;;;;14.18;25.87;101975.63;4969840;28;20031;-34
2022/04/02 09:53:04;;;;;;;2.85;1.40;;;;;;;13.18;26.18;101989.66;4969653;28;20031;-35
2022/04/02 09:55:49;;;;;;;6.18;1.67;;;;;;;13.20;26.47;101989.50;4969631;28;20044;-33
2022/04/02 09:58:40;;;;;;;4.25;1.50;;;;;;;12.47;27.57;101983.06;4969900;28;20037;-34
2022/04/02 10:01:08;;;;;;;2.05;1.50;;;;;;;11.62;29.37;101987.66;4969722;28;20417;-33
2022/04/02 10:03:50;;;;;;;4.60;1.55;;;;;;;11.79;28.92;101983.16;4969392;28;20389;-34
2022/04/02 10:06:26;;;;;;;2.25;1.38;;;;;;;12.32;28.87;101976.63;4969850;28;20030;-32
2022/04/02 10:09:05;;;;;;;3.13;1.80;;;;;;;12.71;28.71;101984.09;4967827;28;20081;-33
2022/04/02 10:11:34;;;;;;;3.70;1.55;;;;;;;12.80;28.13;101969.59;4969526;28;20058;-35
2022/04/02 10:14:02;;;;;;;4.70;1.80;;;;;;;12.42;27.95;101981.88;4969814;28;20061;-33
2022/04/02 10:16:29;;;;;;;7.60;1.73;;;;;;;11.98;28.10;101968.59;4969307;28;20484;-33
2022/04/02 10:18:56;;;;;;;4.05;1.67;;;;;;;11.69;29.35;101967.13;4969238;28;20065;-32
2022/04/02 10:21:21;;;;;;;5.25;1.63;;;;;;;11.71;28.82;101972.34;4969572;28;20477;-33
2022/04/02 10:23:54;;;;;;;3.88;1.80;;;;;;;11.69;30.33;101972.53;4968480;28;20046;-32
2022/04/02 10:26:23;;;;;;;2.53;1.27;;;;;;;12.05;28.96;101978.56;4969215;28;20513;-32
2022/04/02 10:28:54;;;;;;;2.63;1.73;;;;;;;12.12;29.19;101975.25;4969019;28;20587;-32
2022/04/02 10:31:33;;;;;;;2.92;1.63;;;;;;;11.98;29.09;101976.69;4968982;28;20086;-32
2022/04/02 10:34:05;;;;;;;3.53;1.60;;;;;;;11.91;28.46;101976.50;4968834;28;20034;-34
2022/04/02 10:36:32;;;;;;;4.57;1.95;;;;;;;11.29;28.94;101978.53;4951386;28;20065;-33
2022/04/02 10:38:57;;;;;;;4.77;1.70;;;;;;;10.38;31.11;101982.34;4967734;28;20068;-32
2022/04/02 10:41:28;;;;;;;5.78;2.03;;;;;;;9.72;31.41;101980.72;4967801;28;20279;-32
2022/04/02 10:44:11;;;;;;;13.13;1.80;;;;;;;9.41;33.27;101982.81;4968038;28;20031;-33
2022/04/02 10:46:39;;;;;;;4.13;1.65;;;;;;;9.56;32.97;101989.41;4969032;28;20038;-32
2022/04/02 10:49:05;;;;;;;7.18;1.73;;;;;;;9.26;33.67;101987.78;4951213;28;20026;-32
2022/04/02 10:51:32;;;;;;;4.45;1.70;;;;;;;8.90;34.44;101992.94;4966729;28;20389;-32
2022/04/02 10:54:07;;;;;;;4.67;1.57;;;;;;;8.71;34.30;101979.53;4968909;28;20133;-31
2022/04/02 10:56:44;;;;;;;5.53;1.50;;;;;;;8.54;34.10;101989.13;4967656;28;20057;-35
2022/04/02 10:59:10;;;;;;;2.83;1.60;;;;;;;8.48;33.00;101985.19;4968920;28;20035;-32
2022/04/02 11:01:44;;;;;;;2.33;1.67;;;;;;;8.39;33.05;101986.00;4968889;28;20116;-31
2022/04/02 11:04:30;;;;;;;9.32;2.28;;;;;;;8.18;33.46;101985.25;4967987;28;20022;-33
2022/04/02 11:06:57;;;;;;;2.40;1.70;;;;;;;8.01;34.12;101986.78;4968504;28;20088;-31
2022/04/02 11:09:25;;;;;;;3.88;1.75;;;;;;;8.16;33.96;101987.22;4968458;28;20038;-33
2022/04/02 11:11:52;;;;;;;4.15;1.45;;;;;;;8.82;32.60;101981.22;4968864;28;20027;-32
2022/04/02 11:14:20;;;;;;;3.35;1.70;;;;;;;9.09;33.29;101977.81;4968636;28;20642;-32
2022/04/02 11:16:46;;;;;;;3.83;1.55;;;;;;;10.27;32.65;101993.28;4968560;28;20027;-32
2022/04/02 11:22:08;;;;;;;6.30;2.00;;;;;;;12.83;26.53;101982.75;4967538;28;20037;-31
2022/04/02 11:25:01;;;;;;;3.75;1.65;;;;;;;13.46;27.16;101978.50;4968678;28;20431;-34
2022/04/02 11:27:28;;;;;;;3.42;1.73;;;;;;;13.78;26.19;101977.53;4973162;28;20334;-32
2022/04/02 11:30:00;;;;;;;3.35;1.50;;;;;;;14.43;25.99;101976.34;4968054;28;20442;-32
2022/04/02 11:32:27;;;;;;;8.77;1.80;;;;;;;14.51;24.66;101972.72;4968579;28;20031;-33
2022/04/02 11:34:53;;;;;;;6.03;1.60;;;;;;;13.82;25.74;101965.34;4965904;28;20031;-34
2022/04/02 11:37:25;;;;;;;4.00;1.90;;;;;;;13.66;26.57;101962.69;4968238;28;20176;-36
2022/04/02 11:39:53;;;;;;;4.43;1.92;;;;;;;13.71;27.17;101975.69;4967018;28;20034;-32
2022/04/02 11:42:25;;;;;;;9.13;1.70;;;;;;;13.60;26.59;101980.47;4950895;28;20065;-34
2022/04/02 11:44:52;;;;;;;6.35;1.90;;;;;;;12.56;26.90;101983.06;4967164;28;20548;-32
2022/04/02 11:47:26;;;;;;;6.70;1.92;;;;;;;11.58;28.87;101983.56;4968632;28;20034;-32